createdAt,value
2022-08-07T00:00:59.599Z,100324.81
2022-08-07T00:04:03.397Z,100329.56
2022-08-07T00:07:09.531Z,100329.56
2022-08-07T00:10:26.809Z,100331.91
2022-08-07T00:13:29.874Z,100334.66
2022-08-07T00:16:32.363Z,100328.34
2022-08-07T00:20:01.532Z,100339.75
2022-08-07T00:22:57.870Z,100329.13
2022-08-07T00:26:13.277Z,100331.47
2022-08-07T00:29:25.909Z,100326.41
2022-08-07T00:32:34.873Z,100324.84
2022-08-07T00:35:37.588Z,100323.69
2022-08-07T00:38:40.286Z,100319.72
2022-08-07T00:41:53.483Z,100327.59
2022-08-07T00:45:06.793Z,100326.78
2022-08-07T00:48:11.199Z,100326.78
2022-08-07T00:51:14.058Z,100327.19
2022-08-07T00:54:17.873Z,100320.91
2022-08-07T00:57:25.744Z,100322.47
2022-08-07T01:00:28.956Z,100327.16
2022-08-07T01:03:55.299Z,100324.78
2022-08-07T01:06:56.868Z,100317.69
2022-08-07T01:10:06.826Z,100304.34
2022-08-07T01:13:16.321Z,100319.28
2022-08-07T01:16:30.392Z,100316.97
2022-08-07T01:19:34.317Z,100321.28
2022-08-07T01:22:56.577Z,100321.66
2022-08-07T01:26:05.449Z,100324.78
2022-08-07T01:29:11.112Z,100326.75
2022-08-07T01:32:14.590Z,100318.94
2022-08-07T01:35:18.196Z,100320.88
2022-08-07T01:38:29.388Z,100326.34
2022-08-07T01:41:33.545Z,100320.78
2022-08-07T01:44:38.300Z,100320.00
2022-08-07T01:48:18.867Z,100315.28
2022-08-07T01:51:58.812Z,100321.50
2022-08-07T01:54:36.774Z,100313.28
2022-08-07T01:58:01.551Z,100323.19
2022-08-07T02:01:25.380Z,100319.63
2022-08-07T02:04:55.777Z,100331.81
2022-08-07T02:08:03.125Z,100325.81
2022-08-07T02:11:10.460Z,100332.56
2022-08-07T02:14:41.074Z,100332.97
2022-08-07T02:17:49.581Z,100330.91
2022-08-07T02:20:57.292Z,100336.00
2022-08-07T02:24:00.369Z,100334.03
2022-08-07T02:27:05.169Z,100332.06
2022-08-07T02:30:09.837Z,100336.47
2022-08-07T02:33:14.373Z,100335.63
2022-08-07T02:36:29.409Z,100342.72
2022-08-07T02:39:43.678Z,100348.53
2022-08-07T02:43:07.911Z,100354.44
2022-08-07T02:46:12.374Z,100351.66
2022-08-07T02:49:29.169Z,100347.75
2022-08-07T02:52:48.685Z,100343.81
2022-08-07T02:56:04.137Z,100354.44
2022-08-07T02:59:11.719Z,100351.28
2022-08-07T03:02:15.039Z,100348.94
2022-08-07T03:05:20.468Z,100348.16
2022-08-07T03:08:26.820Z,100356.81
2022-08-07T03:11:39.018Z,100348.91
2022-08-07T03:14:56.396Z,100350.84
2022-08-07T03:17:59.506Z,100348.91
2022-08-07T03:21:05.021Z,100353.62
2022-08-07T03:24:20.055Z,100352.91
2022-08-07T03:28:09.140Z,100350.16
2022-08-07T03:31:13.369Z,100352.06
2022-08-07T03:34:22.552Z,100351.38
2022-08-07T03:37:28.031Z,100355.78
2022-08-07T03:40:36.946Z,100355.87
2022-08-07T03:43:44.096Z,100359.84
2022-08-07T03:47:14.067Z,100357.12
2022-08-07T03:50:23.361Z,100358.31
2022-08-07T03:54:00.573Z,100357.97
2022-08-07T03:57:03.511Z,100364.66
2022-08-07T04:00:07.900Z,100367.09
2022-08-07T04:03:17.983Z,100374.19
2022-08-07T04:06:37.973Z,100379.31
2022-08-07T04:09:45.057Z,100388.75
2022-08-07T04:12:50.393Z,100386.41
2022-08-07T04:15:52.988Z,100398.62
2022-08-07T04:18:59.822Z,100404.94
2022-08-07T04:22:12.226Z,100401.78
2022-08-07T04:25:18.453Z,100404.16
2022-08-07T04:28:22.106Z,100406.09
2022-08-07T04:31:38.751Z,100410.06
2022-08-07T04:34:50.351Z,100414.38
2022-08-07T04:38:03.106Z,100419.53
2022-08-07T04:41:09.169Z,100413.66
2022-08-07T04:44:21.225Z,100415.59
2022-08-07T04:48:00.526Z,100417.97
2022-08-07T04:51:12.546Z,100419.94
2022-08-07T04:54:36.830Z,100421.09
2022-08-07T04:58:16.379Z,100426.63
2022-08-07T05:01:37.233Z,100422.25
2022-08-07T05:04:58.930Z,100416.37
2022-08-07T05:08:20.425Z,100428.97
2022-08-07T05:11:58.079Z,100427.00
2022-08-07T05:15:26.861Z,100424.25
2022-08-07T05:18:32.435Z,100428.94
2022-08-07T05:22:00.889Z,100436.44
2022-08-07T05:25:00.733Z,100436.84
2022-08-07T05:28:20.213Z,100437.66
2022-08-07T05:31:34.606Z,100436.09
2022-08-07T05:34:40.438Z,100440.75
2022-08-07T05:37:45.735Z,100445.50
2022-08-07T05:41:12.349Z,100456.16
2022-08-07T05:44:29.342Z,100457.34
2022-08-07T05:47:38.354Z,100456.59
2022-08-07T05:50:59.511Z,100454.63
2022-08-07T05:54:13.522Z,100456.59
2022-08-07T05:57:30.259Z,100459.75
2022-08-07T06:00:39.517Z,100449.53
2022-08-07T06:03:53.916Z,100448.75
2022-08-07T06:07:05.819Z,100449.09
2022-08-07T06:10:15.279Z,100451.09
2022-08-07T06:13:19.213Z,100459.03
2022-08-07T06:16:35.242Z,100454.69
2022-08-07T06:19:52.391Z,100456.22
2022-08-07T06:23:45.702Z,100457.47
2022-08-07T06:26:27.935Z,100475.53
2022-08-07T06:29:30.951Z,100475.59
2022-08-07T06:32:33.199Z,100480.31
2022-08-07T06:35:45.346Z,100480.72
2022-08-07T06:38:58.414Z,100484.28
2022-08-07T06:42:17.758Z,100487.41
2022-08-07T06:45:23.546Z,100494.94
2022-08-07T06:48:26.714Z,100497.75
2022-08-07T06:51:33.914Z,100510.03
2022-08-07T06:55:33.826Z,100503.34
2022-08-07T06:58:04.934Z,100508.88
2022-08-07T07:01:14.424Z,100499.38
2022-08-07T07:04:28.098Z,100500.97
2022-08-07T07:07:59.815Z,100488.37
2022-08-07T07:10:58.827Z,100494.69
2022-08-07T07:14:03.995Z,100496.66
2022-08-07T07:17:20.160Z,100493.12
2022-08-07T07:20:29.569Z,100492.31
2022-08-07T07:24:08.733Z,100497.81
2022-08-07T07:26:59.818Z,100496.19
2022-08-07T07:30:09.768Z,100496.97
2022-08-07T07:33:17.384Z,100492.59
2022-08-07T07:36:20.818Z,100495.81
2022-08-07T07:39:26.294Z,100490.72
2022-08-07T07:42:54.079Z,100490.72
2022-08-07T07:46:38.220Z,100487.16
2022-08-07T07:50:34.082Z,100483.66
2022-08-07T07:52:49.686Z,100482.88
2022-08-07T07:55:57.832Z,100495.91
2022-08-07T07:59:06.066Z,100493.53
2022-08-07T08:02:11.550Z,100490.00
2022-08-07T08:05:51.017Z,100499.06
2022-08-07T08:08:58.717Z,100498.69
2022-08-07T08:12:04.967Z,100499.88
2022-08-07T08:15:08.291Z,100504.63
2022-08-07T08:18:17.864Z,100503.81
2022-08-07T08:21:59.880Z,100502.22
2022-08-07T08:25:33.024Z,100503.00
2022-08-07T08:28:46.091Z,100501.00
2022-08-07T08:32:16.769Z,100497.47
2022-08-07T08:35:19.823Z,100499.81
2022-08-07T08:38:25.861Z,100502.19
2022-08-07T08:42:03.187Z,100500.97
2022-08-07T08:45:22.739Z,100510.47
2022-08-07T08:48:53.986Z,100501.75
2022-08-07T08:52:24.369Z,100500.94
2022-08-07T08:55:54.330Z,100505.19
2022-08-07T08:59:16.368Z,100489.78
2022-08-07T09:02:36.655Z,100493.84
2022-08-07T09:06:04.060Z,100492.44
2022-08-07T09:09:36.588Z,100499.38
2022-08-07T09:12:53.086Z,100501.13
2022-08-07T09:16:30.830Z,100490.38
2022-08-07T09:19:53.438Z,100500.41
2022-08-07T09:24:54.123Z,100500.78
2022-08-07T09:27:09.137Z,100508.66
2022-08-07T09:30:15.021Z,100499.16
2022-08-07T09:33:57.165Z,100494.87
2022-08-07T09:37:18.262Z,100497.19
2022-08-07T09:40:35.395Z,100492.19
2022-08-07T09:44:05.725Z,100493.34
2022-08-07T09:47:50.936Z,100497.25
2022-08-07T09:52:10.497Z,100485.66
2022-08-07T09:54:48.840Z,100489.47
2022-08-07T09:57:56.209Z,100475.59
2022-08-07T10:01:50.403Z,100476.50
2022-08-07T10:04:57.453Z,100470.81
2022-08-07T10:08:35.818Z,100461.19
2022-08-07T10:12:15.434Z,100462.75
2022-08-07T10:15:48.522Z,100470.03
2022-08-07T10:19:37.621Z,100456.50
2022-08-07T10:22:59.238Z,100455.56
2022-08-07T10:26:15.612Z,100455.09
2022-08-07T10:30:00.749Z,100450.37
2022-08-07T10:34:06.909Z,100451.59
2022-08-07T10:37:21.573Z,100453.69
2022-08-07T10:40:52.676Z,100448.72
2022-08-07T10:44:40.075Z,100442.94
2022-08-07T10:48:12.877Z,100441.00
2022-08-07T10:51:57.338Z,100423.03
2022-08-07T10:55:26.725Z,100421.78
2022-08-07T10:58:59.440Z,100421.84
2022-08-07T11:02:37.103Z,100420.63
2022-08-07T11:06:02.771Z,100416.56
2022-08-07T11:10:09.504Z,100418.94
2022-08-07T11:13:42.374Z,100414.28
2022-08-07T11:17:01.999Z,100409.34
2022-08-07T11:20:22.525Z,100403.44
2022-08-07T11:23:50.987Z,100394.41
2022-08-07T11:27:01.978Z,100395.72
2022-08-07T11:30:17.625Z,100396.28
2022-08-07T11:33:59.828Z,100395.56
2022-08-07T11:37:11.712Z,100386.00
2022-08-07T11:40:23.188Z,100384.22
2022-08-07T11:44:10.952Z,100386.31
2022-08-07T11:47:23.190Z,100373.69
2022-08-07T11:50:57.280Z,100380.31
2022-08-07T11:54:22.134Z,100372.91
2022-08-07T11:58:00.185Z,100372.84
2022-08-07T12:01:12.599Z,100367.66
2022-08-07T12:04:38.354Z,100356.09
2022-08-07T12:08:00.587Z,100352.22
2022-08-07T12:11:21.450Z,100349.06
2022-08-07T12:14:29.751Z,100345.37
2022-08-07T12:17:39.900Z,100355.31
2022-08-07T12:22:36.211Z,100342.25
2022-08-07T12:26:02.933Z,100343.59
2022-08-07T12:29:17.354Z,100335.78
2022-08-07T12:32:58.422Z,100335.56
2022-08-07T12:36:02.507Z,100333.13
2022-08-07T12:39:09.560Z,100322.63
2022-08-07T12:42:33.004Z,100321.84
2022-08-07T12:45:43.052Z,100323.31
2022-08-07T12:48:55.230Z,100322.97
2022-08-07T12:52:17.905Z,100313.03
2022-08-07T12:55:41.233Z,100325.00
2022-08-07T12:58:53.162Z,100314.50
2022-08-07T13:02:37.268Z,100311.81
2022-08-07T13:06:21.482Z,100311.34
2022-08-07T13:10:37.771Z,100309.03
2022-08-07T13:13:47.072Z,100305.09
2022-08-07T13:16:50.916Z,100298.41
2022-08-07T13:20:08.174Z,100298.09
2022-08-07T13:24:01.217Z,100300.06
2022-08-07T13:27:30.888Z,100308.34
2022-08-07T13:30:48.728Z,100300.75
2022-08-07T13:34:31.913Z,100298.97
2022-08-07T13:37:32.178Z,100301.19
2022-08-07T13:41:01.798Z,100287.97
2022-08-07T13:44:10.454Z,100291.19
2022-08-07T13:47:21.740Z,100272.78
2022-08-07T13:50:32.783Z,100277.81
2022-08-07T13:54:00.160Z,100268.28
2022-08-07T13:57:14.477Z,100261.59
2022-08-07T14:00:39.592Z,100262.38
2022-08-07T14:04:07.159Z,100252.22
2022-08-07T14:07:11.830Z,100259.03
2022-08-07T14:10:24.838Z,100253.87
2022-08-07T14:13:33.627Z,100253.19
2022-08-07T14:16:42.130Z,100252.44
2022-08-07T14:20:43.262Z,100243.50
2022-08-07T14:24:00.170Z,100250.63
2022-08-07T14:27:00.305Z,100243.84
2022-08-07T14:30:11.984Z,100238.69
2022-08-07T14:33:16.339Z,100236.13
2022-08-07T14:36:26.651Z,100234.47
2022-08-07T14:40:15.607Z,100232.00
2022-08-07T14:43:57.059Z,100233.78
2022-08-07T14:46:33.536Z,100227.50
2022-08-07T14:49:58.480Z,100223.28
2022-08-07T14:53:07.689Z,100225.94
2022-08-07T14:56:13.897Z,100217.94
2022-08-07T15:00:03.641Z,100217.72
2022-08-07T15:02:46.667Z,100216.47
2022-08-07T15:09:59.293Z,100200.84
2022-08-07T15:16:14.708Z,100201.50
2022-08-07T15:20:31.586Z,100196.94
2022-08-07T15:22:51.553Z,100196.16
2022-08-07T15:25:58.136Z,100196.72
2022-08-07T15:30:09.276Z,100197.63
2022-08-07T15:32:39.451Z,100191.38
2022-08-07T15:36:02.142Z,100190.59
2022-08-07T15:39:12.230Z,100183.66
2022-08-07T15:42:47.611Z,100180.75
2022-08-07T15:45:55.885Z,100189.03
2022-08-07T15:49:17.830Z,100182.31
2022-08-07T15:52:30.296Z,100179.66
2022-08-07T15:55:54.005Z,100188.34
2022-08-07T15:59:01.121Z,100178.09
2022-08-07T16:02:06.773Z,100178.09
2022-08-07T16:05:18.402Z,100175.97
2022-08-07T16:08:33.055Z,100180.47
2022-08-07T16:11:49.650Z,100182.47
2022-08-07T16:15:56.339Z,100178.69
2022-08-07T16:19:41.815Z,100186.69
2022-08-07T16:23:13.742Z,100180.75
2022-08-07T16:26:59.761Z,100182.69
2022-08-07T16:30:30.903Z,100188.34
2022-08-07T16:34:01.373Z,100182.22
2022-08-07T16:38:03.330Z,100186.31
2022-08-07T16:41:07.012Z,100192.25
2022-08-07T16:44:47.339Z,100187.81
2022-08-07T16:48:30.005Z,100181.00
2022-08-07T16:52:11.358Z,100178.06
2022-08-07T16:55:24.931Z,100175.94
2022-08-07T16:59:11.429Z,100178.56
2022-08-07T17:02:53.590Z,100183.47
2022-08-07T17:06:28.624Z,100187.22
2022-08-07T17:10:05.147Z,100186.19
2022-08-07T17:13:41.326Z,100183.06
2022-08-07T17:16:58.400Z,100181.66
2022-08-07T17:20:14.371Z,100186.44
2022-08-07T17:23:23.052Z,100184.00
2022-08-07T17:26:51.393Z,100186.78
2022-08-07T17:30:14.632Z,100184.81
2022-08-07T17:34:08.990Z,100177.47
2022-08-07T17:37:09.172Z,100179.13
2022-08-07T17:40:40.799Z,100182.87
2022-08-07T17:44:14.684Z,100183.41
2022-08-07T17:47:42.878Z,100197.44
2022-08-07T17:50:53.993Z,100193.88
2022-08-07T17:54:29.668Z,100199.97
2022-08-07T17:58:04.180Z,100198.47
2022-08-07T18:01:21.469Z,100203.50
2022-08-07T18:04:35.103Z,100205.63
2022-08-07T18:07:43.922Z,100215.97
2022-08-07T18:12:07.605Z,100215.78
2022-08-07T18:14:37.518Z,100232.12
2022-08-07T18:18:45.836Z,100232.97
2022-08-07T18:21:53.498Z,100240.28
2022-08-07T18:25:01.485Z,100237.84
2022-08-07T18:28:34.573Z,100239.75
2022-08-07T18:31:59.927Z,100240.69
2022-08-07T18:35:11.449Z,100238.69
2022-08-07T18:38:55.411Z,100248.34
2022-08-07T18:42:04.910Z,100245.34
2022-08-07T18:45:44.771Z,100253.00
2022-08-07T18:50:32.315Z,100252.12
2022-08-07T18:52:33.856Z,100258.63
2022-08-07T18:56:19.680Z,100259.34
2022-08-07T18:59:58.952Z,100265.06
2022-08-07T19:03:16.102Z,100274.41
2022-08-07T19:06:34.075Z,100276.06
2022-08-07T19:09:55.857Z,100281.34
2022-08-07T19:13:10.130Z,100282.31
2022-08-07T19:17:00.329Z,100294.91
2022-08-07T19:20:29.754Z,100296.25
2022-08-07T19:23:58.750Z,100302.81
2022-08-07T19:28:57.514Z,100316.09
2022-08-07T19:31:05.415Z,100320.69
2022-08-07T19:33:59.517Z,100324.44
2022-08-07T19:37:10.160Z,100336.09
2022-08-07T19:40:31.435Z,100333.53
2022-08-07T19:43:48.913Z,100338.41
2022-08-07T19:47:05.055Z,100345.75
2022-08-07T19:50:41.075Z,100347.38
2022-08-07T19:54:31.101Z,100348.72
2022-08-07T19:58:00.892Z,100354.03
2022-08-07T20:00:28.851Z,100359.34
2022-08-07T20:03:36.090Z,100362.22
2022-08-07T20:06:42.943Z,100366.97
2022-08-07T20:10:35.180Z,100360.81
2022-08-07T20:13:23.791Z,100363.69
2022-08-07T20:16:36.354Z,100362.59
2022-08-07T20:19:48.335Z,100365.87
2022-08-07T20:23:23.399Z,100367.91
2022-08-07T20:26:44.939Z,100373.56
2022-08-07T20:30:00.272Z,100379.16
2022-08-07T20:33:09.043Z,100374.50
2022-08-07T20:36:28.327Z,100378.94
2022-08-07T20:40:02.791Z,100384.16
2022-08-07T20:42:59.022Z,100378.22
2022-08-07T20:46:25.698Z,100379.84
2022-08-07T20:49:59.230Z,100379.47
2022-08-07T20:52:51.811Z,100382.69
2022-08-07T20:55:57.639Z,100383.94
2022-08-07T20:59:05.284Z,100385.47
2022-08-07T21:02:38.312Z,100383.16
2022-08-07T21:05:54.870Z,100388.38
2022-08-07T21:09:13.998Z,100379.31
2022-08-07T21:12:28.731Z,100382.09
2022-08-07T21:15:48.100Z,100391.59
2022-08-07T21:19:02.193Z,100388.03
2022-08-07T21:22:07.210Z,100393.56
2022-08-07T21:25:20.223Z,100397.13
2022-08-07T21:28:47.985Z,100413.72
2022-08-07T21:32:47.180Z,100411.38
2022-08-07T21:36:04.038Z,100414.16
2022-08-07T21:39:05.542Z,100412.19
2022-08-07T21:42:42.518Z,100411.03
2022-08-07T21:46:08.603Z,100416.16
2022-08-07T21:49:40.695Z,100417.34
2022-08-07T21:53:11.194Z,100420.53
2022-08-07T21:56:39.710Z,100421.72
2022-08-07T22:00:05.226Z,100414.25
2022-08-07T22:03:17.188Z,100433.59
2022-08-07T22:06:30.480Z,100422.94
2022-08-07T22:09:53.669Z,100439.53
2022-08-07T22:13:01.198Z,100433.22
2022-08-07T22:16:38.901Z,100435.56
2022-08-07T22:19:52.620Z,100433.22
2022-08-07T22:23:11.550Z,100432.03
2022-08-07T22:26:22.989Z,100431.66
2022-08-07T22:29:47.983Z,100434.78
2022-08-07T22:32:58.172Z,100431.62
2022-08-07T22:36:07.359Z,100435.56
2022-08-07T22:39:26.099Z,100431.62
2022-08-07T22:42:33.997Z,100443.47
2022-08-07T22:46:43.332Z,100441.84
2022-08-07T22:49:57.334Z,100434.38
2022-08-07T22:54:06.369Z,100440.25
2022-08-07T22:56:58.788Z,100438.66
2022-08-07T23:00:03.073Z,100445.38
2022-08-07T23:03:58.989Z,100443.34
2022-08-07T23:07:40.022Z,100447.66
2022-08-07T23:11:28.788Z,100451.19
2022-08-07T23:14:56.048Z,100459.81
2022-08-07T23:18:09.163Z,100459.78
2022-08-07T23:21:30.309Z,100456.66
2022-08-07T23:24:45.311Z,100458.97
2022-08-07T23:28:21.817Z,100458.13
2022-08-07T23:32:50.264Z,100463.63
2022-08-07T23:35:02.981Z,100460.91
2022-08-07T23:38:19.469Z,100460.87
2022-08-07T23:42:08.023Z,100450.19
2022-08-07T23:46:02.452Z,100454.13
2022-08-07T23:49:49.867Z,100467.47
2022-08-07T23:53:06.632Z,100467.87
2022-08-07T23:56:35.150Z,100462.38
